sensor_id;sensor_type;location;lat;lon;timestamp;temperature;humidity
22450;DHT22;11392;57.390;-2.468;2023-05-07T00:02:01;8.10;99.90
22450;DHT22;11392;57.390;-2.468;2023-05-07T00:04:30;8.10;99.90
22450;DHT22;11392;57.390;-2.468;2023-05-07T00:07:03;8.10;99.90
22450;DHT22;11392;57.390;-2.468;2023-05-07T00:09:30;8.10;99.90
22450;DHT22;11392;57.390;-2.468;2023-05-07T00:11:57;8.10;99.90
22450;DHT22;11392;57.390;-2.468;2023-05-07T00:14:24;8.00;99.90
22450;DHT22;11392;57.390;-2.468;2023-05-07T00:16:51;8.10;99.90
22450;DHT22;11392;57.390;-2.468;2023-05-07T00:19:18;8.10;99.90
22450;DHT22;11392;57.390;-2.468;2023-05-07T00:21:46;8.10;99.90
22450;DHT22;11392;57.390;-2.468;2023-05-07T00:24:13;8.00;99.90
22450;DHT22;11392;57.390;-2.468;2023-05-07T00:26:40;8.00;99.90
22450;DHT22;11392;57.390;-2.468;2023-05-07T00:29:07;8.00;99.90
22450;DHT22;11392;57.390;-2.468;2023-05-07T00:31:34;8.00;99.90
22450;DHT22;11392;57.390;-2.468;2023-05-07T00:34:02;8.00;99.90
22450;DHT22;11392;57.390;-2.468;2023-05-07T00:36:29;8.00;99.90
22450;DHT22;11392;57.390;-2.468;2023-05-07T00:38:58;8.00;99.90
22450;DHT22;11392;57.390;-2.468;2023-05-07T00:41:26;8.00;99.90
22450;DHT22;11392;57.390;-2.468;2023-05-07T00:43:53;8.00;99.90
22450;DHT22;11392;57.390;-2.468;2023-05-07T00:46:21;8.00;99.90
22450;DHT22;11392;57.390;-2.468;2023-05-07T00:48:48;8.00;99.90
22450;DHT22;11392;57.390;-2.468;2023-05-07T00:51:17;8.00;99.90
22450;DHT22;11392;57.390;-2.468;2023-05-07T00:53:45;8.00;99.90
22450;DHT22;11392;57.390;-2.468;2023-05-07T00:56:13;8.00;99.90
22450;DHT22;11392;57.390;-2.468;2023-05-07T00:58:40;8.00;99.90
22450;DHT22;11392;57.390;-2.468;2023-05-07T01:01:07;8.00;99.90
22450;DHT22;11392;57.390;-2.468;2023-05-07T01:03:35;8.00;99.90
22450;DHT22;11392;57.390;-2.468;2023-05-07T01:06:03;8.00;99.90
22450;DHT22;11392;57.390;-2.468;2023-05-07T01:08:32;7.90;99.90
22450;DHT22;11392;57.390;-2.468;2023-05-07T01:11:00;7.90;99.90
22450;DHT22;11392;57.390;-2.468;2023-05-07T01:13:27;7.90;99.90
22450;DHT22;11392;57.390;-2.468;2023-05-07T01:15:54;7.90;99.90
22450;DHT22;11392;57.390;-2.468;2023-05-07T01:18:21;7.90;99.90
22450;DHT22;11392;57.390;-2.468;2023-05-07T01:20:49;8.00;99.90
22450;DHT22;11392;57.390;-2.468;2023-05-07T01:23:16;7.90;99.90
22450;DHT22;11392;57.390;-2.468;2023-05-07T01:25:51;7.90;99.90
22450;DHT22;11392;57.390;-2.468;2023-05-07T01:28:19;7.90;99.90
22450;DHT22;11392;57.390;-2.468;2023-05-07T01:30:50;7.90;99.90
22450;DHT22;11392;57.390;-2.468;2023-05-07T01:33:20;7.90;99.90
22450;DHT22;11392;57.390;-2.468;2023-05-07T01:35:53;7.90;99.90
22450;DHT22;11392;57.390;-2.468;2023-05-07T01:38:23;7.90;99.90
22450;DHT22;11392;57.390;-2.468;2023-05-07T01:40:51;7.90;99.90
22450;DHT22;11392;57.390;-2.468;2023-05-07T01:43:19;7.90;99.90
22450;DHT22;11392;57.390;-2.468;2023-05-07T01:45:46;7.90;99.90
22450;DHT22;11392;57.390;-2.468;2023-05-07T01:48:14;7.90;99.90
22450;DHT22;11392;57.390;-2.468;2023-05-07T01:50:43;7.90;99.90
22450;DHT22;11392;57.390;-2.468;2023-05-07T01:53:11;7.90;99.90
22450;DHT22;11392;57.390;-2.468;2023-05-07T01:55:38;7.90;99.90
22450;DHT22;11392;57.390;-2.468;2023-05-07T01:58:05;7.90;99.90
22450;DHT22;11392;57.390;-2.468;2023-05-07T02:00:32;7.90;99.90
22450;DHT22;11392;57.390;-2.468;2023-05-07T02:02:59;7.90;99.90
22450;DHT22;11392;57.390;-2.468;2023-05-07T02:05:26;7.90;99.90
22450;DHT22;11392;57.390;-2.468;2023-05-07T02:07:53;7.90;99.90
22450;DHT22;11392;57.390;-2.468;2023-05-07T02:10:20;7.90;99.90
22450;DHT22;11392;57.390;-2.468;2023-05-07T02:12:47;7.90;99.90
22450;DHT22;11392;57.390;-2.468;2023-05-07T02:15:14;7.90;99.90
22450;DHT22;11392;57.390;-2.468;2023-05-07T02:18:00;7.90;99.90
22450;DHT22;11392;57.390;-2.468;2023-05-07T02:20:28;7.90;99.90
22450;DHT22;11392;57.390;-2.468;2023-05-07T02:22:55;7.90;99.90
22450;DHT22;11392;57.390;-2.468;2023-05-07T02:25:22;7.90;99.90
22450;DHT22;11392;57.390;-2.468;2023-05-07T02:27:49;7.90;99.90
22450;DHT22;11392;57.390;-2.468;2023-05-07T02:30:17;7.90;99.90
22450;DHT22;11392;57.390;-2.468;2023-05-07T02:32:43;7.90;99.90
22450;DHT22;11392;57.390;-2.468;2023-05-07T02:35:11;7.90;99.90
22450;DHT22;11392;57.390;-2.468;2023-05-07T02:37:38;7.90;99.90
22450;DHT22;11392;57.390;-2.468;2023-05-07T02:40:06;7.90;99.90
22450;DHT22;11392;57.390;-2.468;2023-05-07T02:42:33;7.90;99.90
22450;DHT22;11392;57.390;-2.468;2023-05-07T02:45:00;7.90;99.90
22450;DHT22;11392;57.390;-2.468;2023-05-07T02:47:27;7.90;99.90
22450;DHT22;11392;57.390;-2.468;2023-05-07T02:49:55;7.80;99.90
22450;DHT22;11392;57.390;-2.468;2023-05-07T02:52:22;7.80;99.90
22450;DHT22;11392;57.390;-2.468;2023-05-07T02:54:49;7.90;99.90
22450;DHT22;11392;57.390;-2.468;2023-05-07T02:57:17;7.80;99.90
22450;DHT22;11392;57.390;-2.468;2023-05-07T02:59:44;7.80;99.90
22450;DHT22;11392;57.390;-2.468;2023-05-07T03:02:11;7.90;99.90
22450;DHT22;11392;57.390;-2.468;2023-05-07T03:04:39;7.80;99.90
22450;DHT22;11392;57.390;-2.468;2023-05-07T03:07:06;7.90;99.90
22450;DHT22;11392;57.390;-2.468;2023-05-07T03:09:33;7.90;99.90
22450;DHT22;11392;57.390;-2.468;2023-05-07T03:12:00;7.90;99.90
22450;DHT22;11392;57.390;-2.468;2023-05-07T03:14:28;7.90;99.90
22450;DHT22;11392;57.390;-2.468;2023-05-07T03:16:55;7.90;99.90
22450;DHT22;11392;57.390;-2.468;2023-05-07T03:19:22;7.90;99.90
22450;DHT22;11392;57.390;-2.468;2023-05-07T03:21:49;7.90;99.90
22450;DHT22;11392;57.390;-2.468;2023-05-07T03:24:16;7.90;99.90
22450;DHT22;11392;57.390;-2.468;2023-05-07T03:26:43;7.90;99.90
22450;DHT22;11392;57.390;-2.468;2023-05-07T03:29:10;7.90;99.90
22450;DHT22;11392;57.390;-2.468;2023-05-07T03:31:37;7.90;99.90
22450;DHT22;11392;57.390;-2.468;2023-05-07T03:34:04;7.90;99.90
22450;DHT22;11392;57.390;-2.468;2023-05-07T03:36:31;7.90;99.90
22450;DHT22;11392;57.390;-2.468;2023-05-07T03:38:59;7.90;99.90
22450;DHT22;11392;57.390;-2.468;2023-05-07T03:41:26;7.90;99.90
22450;DHT22;11392;57.390;-2.468;2023-05-07T03:43:54;7.90;99.90
22450;DHT22;11392;57.390;-2.468;2023-05-07T03:46:21;7.90;99.90
22450;DHT22;11392;57.390;-2.468;2023-05-07T03:48:48;7.90;99.90
22450;DHT22;11392;57.390;-2.468;2023-05-07T03:51:15;7.90;99.90
22450;DHT22;11392;57.390;-2.468;2023-05-07T03:53:42;7.90;99.90
22450;DHT22;11392;57.390;-2.468;2023-05-07T03:56:09;7.90;99.90
22450;DHT22;11392;57.390;-2.468;2023-05-07T03:58:36;7.90;99.90
22450;DHT22;11392;57.390;-2.468;2023-05-07T04:01:03;7.90;99.90
22450;DHT22;11392;57.390;-2.468;2023-05-07T04:03:30;8.00;99.90
22450;DHT22;11392;57.390;-2.468;2023-05-07T04:05:57;8.00;99.90
22450;DHT22;11392;57.390;-2.468;2023-05-07T04:08:24;8.00;99.90
22450;DHT22;11392;57.390;-2.468;2023-05-07T04:10:58;8.00;99.90
22450;DHT22;11392;57.390;-2.468;2023-05-07T04:13:27;8.00;99.90
22450;DHT22;11392;57.390;-2.468;2023-05-07T04:15:55;8.00;99.90
22450;DHT22;11392;57.390;-2.468;2023-05-07T04:18:22;8.00;99.90
22450;DHT22;11392;57.390;-2.468;2023-05-07T04:20:49;8.00;99.90
22450;DHT22;11392;57.390;-2.468;2023-05-07T04:23:16;8.00;99.90
22450;DHT22;11392;57.390;-2.468;2023-05-07T04:25:43;8.00;99.90
22450;DHT22;11392;57.390;-2.468;2023-05-07T04:28:11;8.00;99.90
22450;DHT22;11392;57.390;-2.468;2023-05-07T04:30:38;8.00;99.90
22450;DHT22;11392;57.390;-2.468;2023-05-07T04:33:05;8.00;99.90
22450;DHT22;11392;57.390;-2.468;2023-05-07T04:35:33;8.00;99.90
22450;DHT22;11392;57.390;-2.468;2023-05-07T04:38:01;8.00;99.90
22450;DHT22;11392;57.390;-2.468;2023-05-07T04:40:28;8.10;99.90
22450;DHT22;11392;57.390;-2.468;2023-05-07T04:42:55;8.10;99.90
22450;DHT22;11392;57.390;-2.468;2023-05-07T04:45:22;8.10;99.90
22450;DHT22;11392;57.390;-2.468;2023-05-07T04:47:49;8.10;99.90
22450;DHT22;11392;57.390;-2.468;2023-05-07T04:50:17;8.10;99.90
22450;DHT22;11392;57.390;-2.468;2023-05-07T04:52:46;8.10;99.90
22450;DHT22;11392;57.390;-2.468;2023-05-07T04:55:13;8.10;99.90
22450;DHT22;11392;57.390;-2.468;2023-05-07T04:57:39;8.10;99.90
22450;DHT22;11392;57.390;-2.468;2023-05-07T05:00:08;8.10;99.90
22450;DHT22;11392;57.390;-2.468;2023-05-07T05:02:37;8.10;99.90
22450;DHT22;11392;57.390;-2.468;2023-05-07T05:05:04;8.10;99.90
22450;DHT22;11392;57.390;-2.468;2023-05-07T05:07:31;8.10;99.90
22450;DHT22;11392;57.390;-2.468;2023-05-07T05:09:59;8.10;99.90
22450;DHT22;11392;57.390;-2.468;2023-05-07T05:12:25;8.20;99.90
22450;DHT22;11392;57.390;-2.468;2023-05-07T05:14:53;8.20;99.90
22450;DHT22;11392;57.390;-2.468;2023-05-07T05:17:20;8.20;99.90
22450;DHT22;11392;57.390;-2.468;2023-05-07T05:19:47;8.20;99.90
22450;DHT22;11392;57.390;-2.468;2023-05-07T05:22:14;8.20;99.90
22450;DHT22;11392;57.390;-2.468;2023-05-07T05:24:42;8.20;99.90
22450;DHT22;11392;57.390;-2.468;2023-05-07T05:27:09;8.20;99.90
22450;DHT22;11392;57.390;-2.468;2023-05-07T05:29:36;8.30;99.90
22450;DHT22;11392;57.390;-2.468;2023-05-07T05:32:02;8.20;99.90
22450;DHT22;11392;57.390;-2.468;2023-05-07T05:34:30;8.30;99.90
22450;DHT22;11392;57.390;-2.468;2023-05-07T05:36:57;8.30;99.90
22450;DHT22;11392;57.390;-2.468;2023-05-07T05:39:25;8.30;99.90
22450;DHT22;11392;57.390;-2.468;2023-05-07T05:41:52;8.30;99.90
22450;DHT22;11392;57.390;-2.468;2023-05-07T05:44:19;8.30;99.90
22450;DHT22;11392;57.390;-2.468;2023-05-07T05:46:46;8.30;99.90
22450;DHT22;11392;57.390;-2.468;2023-05-07T05:49:13;8.30;99.90
22450;DHT22;11392;57.390;-2.468;2023-05-07T05:51:41;8.40;99.90
22450;DHT22;11392;57.390;-2.468;2023-05-07T05:54:08;8.40;99.90
22450;DHT22;11392;57.390;-2.468;2023-05-07T05:56:36;8.40;99.90
22450;DHT22;11392;57.390;-2.468;2023-05-07T05:59:03;8.40;99.90
22450;DHT22;11392;57.390;-2.468;2023-05-07T06:01:30;8.40;99.90
22450;DHT22;11392;57.390;-2.468;2023-05-07T06:03:58;8.40;99.90
22450;DHT22;11392;57.390;-2.468;2023-05-07T06:06:25;8.40;99.90
22450;DHT22;11392;57.390;-2.468;2023-05-07T06:08:52;8.40;99.90
22450;DHT22;11392;57.390;-2.468;2023-05-07T06:11:19;8.40;99.90
22450;DHT22;11392;57.390;-2.468;2023-05-07T06:13:46;8.40;99.90
22450;DHT22;11392;57.390;-2.468;2023-05-07T06:16:14;8.40;99.90
22450;DHT22;11392;57.390;-2.468;2023-05-07T06:18:42;8.40;99.90
22450;DHT22;11392;57.390;-2.468;2023-05-07T06:21:09;8.50;99.90
22450;DHT22;11392;57.390;-2.468;2023-05-07T06:23:36;8.50;99.90
22450;DHT22;11392;57.390;-2.468;2023-05-07T06:26:03;8.50;99.90
22450;DHT22;11392;57.390;-2.468;2023-05-07T06:28:31;8.50;99.90
22450;DHT22;11392;57.390;-2.468;2023-05-07T06:31:19;8.50;99.90
22450;DHT22;11392;57.390;-2.468;2023-05-07T06:33:48;8.60;99.90
22450;DHT22;11392;57.390;-2.468;2023-05-07T06:36:15;8.60;99.90
22450;DHT22;11392;57.390;-2.468;2023-05-07T06:38:42;8.60;99.90
22450;DHT22;11392;57.390;-2.468;2023-05-07T06:41:09;8.60;99.90
22450;DHT22;11392;57.390;-2.468;2023-05-07T06:43:36;8.60;99.90
22450;DHT22;11392;57.390;-2.468;2023-05-07T06:46:03;8.70;99.90
22450;DHT22;11392;57.390;-2.468;2023-05-07T06:48:30;8.70;99.90
22450;DHT22;11392;57.390;-2.468;2023-05-07T06:50:58;8.70;99.90
22450;DHT22;11392;57.390;-2.468;2023-05-07T06:53:25;8.70;99.90
22450;DHT22;11392;57.390;-2.468;2023-05-07T06:55:52;8.70;99.90
22450;DHT22;11392;57.390;-2.468;2023-05-07T06:58:19;8.80;99.90
22450;DHT22;11392;57.390;-2.468;2023-05-07T07:00:46;8.80;99.90
22450;DHT22;11392;57.390;-2.468;2023-05-07T07:03:13;8.80;99.90
22450;DHT22;11392;57.390;-2.468;2023-05-07T07:05:41;8.80;99.90
22450;DHT22;11392;57.390;-2.468;2023-05-07T07:08:10;8.80;99.90
22450;DHT22;11392;57.390;-2.468;2023-05-07T07:10:37;8.80;99.90
22450;DHT22;11392;57.390;-2.468;2023-05-07T07:13:04;8.90;99.90
22450;DHT22;11392;57.390;-2.468;2023-05-07T07:15:31;8.80;99.90
22450;DHT22;11392;57.390;-2.468;2023-05-07T07:17:58;8.90;99.90
22450;DHT22;11392;57.390;-2.468;2023-05-07T07:20:25;8.90;99.90
22450;DHT22;11392;57.390;-2.468;2023-05-07T07:22:52;8.90;99.90
22450;DHT22;11392;57.390;-2.468;2023-05-07T07:25:19;8.90;99.90
22450;DHT22;11392;57.390;-2.468;2023-05-07T07:27:46;8.90;99.90
22450;DHT22;11392;57.390;-2.468;2023-05-07T07:30:13;8.90;99.90
22450;DHT22;11392;57.390;-2.468;2023-05-07T07:32:40;8.90;99.90
22450;DHT22;11392;57.390;-2.468;2023-05-07T07:35:08;8.90;99.90
22450;DHT22;11392;57.390;-2.468;2023-05-07T07:37:35;9.00;99.90
22450;DHT22;11392;57.390;-2.468;2023-05-07T07:40:02;9.00;99.90
22450;DHT22;11392;57.390;-2.468;2023-05-07T07:42:30;9.10;99.90
22450;DHT22;11392;57.390;-2.468;2023-05-07T07:44:57;9.10;99.90
22450;DHT22;11392;57.390;-2.468;2023-05-07T07:47:24;9.10;99.90
22450;DHT22;11392;57.390;-2.468;2023-05-07T07:49:51;9.10;99.90
22450;DHT22;11392;57.390;-2.468;2023-05-07T07:52:18;9.20;99.90
22450;DHT22;11392;57.390;-2.468;2023-05-07T07:54:45;9.10;99.90
22450;DHT22;11392;57.390;-2.468;2023-05-07T07:57:12;9.20;99.90
22450;DHT22;11392;57.390;-2.468;2023-05-07T07:59:39;9.10;99.90
22450;DHT22;11392;57.390;-2.468;2023-05-07T08:02:06;9.20;99.90
22450;DHT22;11392;57.390;-2.468;2023-05-07T08:04:33;9.20;99.90
22450;DHT22;11392;57.390;-2.468;2023-05-07T08:07:01;9.10;99.90
22450;DHT22;11392;57.390;-2.468;2023-05-07T08:09:28;9.20;99.90
22450;DHT22;11392;57.390;-2.468;2023-05-07T08:11:55;9.20;99.90
22450;DHT22;11392;57.390;-2.468;2023-05-07T08:14:22;9.20;99.90
22450;DHT22;11392;57.390;-2.468;2023-05-07T08:16:49;9.30;99.90
22450;DHT22;11392;57.390;-2.468;2023-05-07T08:19:16;9.30;99.90
22450;DHT22;11392;57.390;-2.468;2023-05-07T08:21:43;9.30;99.90
22450;DHT22;11392;57.390;-2.468;2023-05-07T08:24:10;9.40;99.90
22450;DHT22;11392;57.390;-2.468;2023-05-07T08:26:38;9.30;99.90
22450;DHT22;11392;57.390;-2.468;2023-05-07T08:29:06;9.40;99.90
22450;DHT22;11392;57.390;-2.468;2023-05-07T08:31:33;9.40;99.90
22450;DHT22;11392;57.390;-2.468;2023-05-07T08:34:00;9.50;99.90
22450;DHT22;11392;57.390;-2.468;2023-05-07T08:36:27;9.60;99.90
22450;DHT22;11392;57.390;-2.468;2023-05-07T08:41:31;9.80;99.90
22450;DHT22;11392;57.390;-2.468;2023-05-07T08:43:59;9.70;99.90
22450;DHT22;11392;57.390;-2.468;2023-05-07T08:46:31;9.80;99.90
22450;DHT22;11392;57.390;-2.468;2023-05-07T08:48:59;9.80;99.90
22450;DHT22;11392;57.390;-2.468;2023-05-07T08:51:26;9.80;99.90
22450;DHT22;11392;57.390;-2.468;2023-05-07T08:53:53;9.80;99.90
22450;DHT22;11392;57.390;-2.468;2023-05-07T08:56:21;9.80;99.90
22450;DHT22;11392;57.390;-2.468;2023-05-07T08:58:48;9.80;99.90
22450;DHT22;11392;57.390;-2.468;2023-05-07T09:01:16;9.70;99.90
22450;DHT22;11392;57.390;-2.468;2023-05-07T09:03:45;9.70;99.90
22450;DHT22;11392;57.390;-2.468;2023-05-07T09:06:13;9.80;99.90
22450;DHT22;11392;57.390;-2.468;2023-05-07T09:08:40;9.80;99.90
22450;DHT22;11392;57.390;-2.468;2023-05-07T09:11:07;9.90;99.90
22450;DHT22;11392;57.390;-2.468;2023-05-07T09:13:34;10.00;99.90
22450;DHT22;11392;57.390;-2.468;2023-05-07T09:16:11;10.00;99.90
22450;DHT22;11392;57.390;-2.468;2023-05-07T09:18:42;10.10;99.90
22450;DHT22;11392;57.390;-2.468;2023-05-07T09:21:11;10.00;99.90
22450;DHT22;11392;57.390;-2.468;2023-05-07T09:23:38;10.10;99.90
22450;DHT22;11392;57.390;-2.468;2023-05-07T09:26:06;10.20;99.90
22450;DHT22;11392;57.390;-2.468;2023-05-07T09:28:39;10.20;99.90
22450;DHT22;11392;57.390;-2.468;2023-05-07T09:31:08;10.20;99.90
22450;DHT22;11392;57.390;-2.468;2023-05-07T09:33:36;10.20;99.90
22450;DHT22;11392;57.390;-2.468;2023-05-07T09:36:04;10.20;99.90
22450;DHT22;11392;57.390;-2.468;2023-05-07T09:38:33;10.20;99.90
22450;DHT22;11392;57.390;-2.468;2023-05-07T09:41:04;10.10;99.90
22450;DHT22;11392;57.390;-2.468;2023-05-07T09:43:33;10.20;99.90
22450;DHT22;11392;57.390;-2.468;2023-05-07T09:48:37;10.10;99.90
22450;DHT22;11392;57.390;-2.468;2023-05-07T09:53:39;10.20;99.90
22450;DHT22;11392;57.390;-2.468;2023-05-07T09:56:07;10.30;99.90
22450;DHT22;11392;57.390;-2.468;2023-05-07T09:58:37;10.30;99.90
22450;DHT22;11392;57.390;-2.468;2023-05-07T10:01:04;10.40;99.90
22450;DHT22;11392;57.390;-2.468;2023-05-07T10:03:33;10.70;99.90
22450;DHT22;11392;57.390;-2.468;2023-05-07T10:06:04;10.80;99.90
22450;DHT22;11392;57.390;-2.468;2023-05-07T10:08:31;10.90;99.90
22450;DHT22;11392;57.390;-2.468;2023-05-07T10:10:59;11.00;99.90
22450;DHT22;11392;57.390;-2.468;2023-05-07T10:13:27;11.10;99.90
22450;DHT22;11392;57.390;-2.468;2023-05-07T10:15:55;11.00;99.90
22450;DHT22;11392;57.390;-2.468;2023-05-07T10:18:22;11.00;99.90
22450;DHT22;11392;57.390;-2.468;2023-05-07T10:20:51;11.00;99.90
22450;DHT22;11392;57.390;-2.468;2023-05-07T10:23:23;10.80;99.90
22450;DHT22;11392;57.390;-2.468;2023-05-07T10:25:50;10.70;99.90
22450;DHT22;11392;57.390;-2.468;2023-05-07T10:28:25;10.60;99.90
22450;DHT22;11392;57.390;-2.468;2023-05-07T10:33:27;10.50;99.90
22450;DHT22;11392;57.390;-2.468;2023-05-07T10:35:58;10.50;99.90
22450;DHT22;11392;57.390;-2.468;2023-05-07T10:38:27;10.50;99.90
22450;DHT22;11392;57.390;-2.468;2023-05-07T10:40:54;10.70;99.90
22450;DHT22;11392;57.390;-2.468;2023-05-07T10:43:21;10.70;99.90
22450;DHT22;11392;57.390;-2.468;2023-05-07T10:46:11;10.70;99.90
22450;DHT22;11392;57.390;-2.468;2023-05-07T10:51:29;10.70;99.90
22450;DHT22;11392;57.390;-2.468;2023-05-07T10:56:37;10.80;99.90
22450;DHT22;11392;57.390;-2.468;2023-05-07T11:02:02;10.60;99.90
22450;DHT22;11392;57.390;-2.468;2023-05-07T11:04:31;10.60;99.90
22450;DHT22;11392;57.390;-2.468;2023-05-07T11:09:54;10.60;99.90
22450;DHT22;11392;57.390;-2.468;2023-05-07T11:15:12;10.70;99.90
22450;DHT22;11392;57.390;-2.468;2023-05-07T11:17:56;10.60;99.90
22450;DHT22;11392;57.390;-2.468;2023-05-07T11:26:05;10.40;99.90
22450;DHT22;11392;57.390;-2.468;2023-05-07T11:28:40;10.40;99.90
22450;DHT22;11392;57.390;-2.468;2023-05-07T11:31:08;10.40;99.90
22450;DHT22;11392;57.390;-2.468;2023-05-07T11:33:37;10.40;99.90
22450;DHT22;11392;57.390;-2.468;2023-05-07T11:36:05;10.40;99.90
22450;DHT22;11392;57.390;-2.468;2023-05-07T11:38:36;10.60;99.90
22450;DHT22;11392;57.390;-2.468;2023-05-07T11:41:03;10.70;99.90
22450;DHT22;11392;57.390;-2.468;2023-05-07T11:43:33;10.80;99.90
22450;DHT22;11392;57.390;-2.468;2023-05-07T11:46:10;10.90;99.90
22450;DHT22;11392;57.390;-2.468;2023-05-07T11:48:38;10.90;99.90
22450;DHT22;11392;57.390;-2.468;2023-05-07T11:51:06;10.90;99.90
22450;DHT22;11392;57.390;-2.468;2023-05-07T11:53:40;11.00;99.90
22450;DHT22;11392;57.390;-2.468;2023-05-07T11:56:15;11.20;99.90
22450;DHT22;11392;57.390;-2.468;2023-05-07T11:58:43;11.30;99.90
22450;DHT22;11392;57.390;-2.468;2023-05-07T12:01:12;11.40;99.90
22450;DHT22;11392;57.390;-2.468;2023-05-07T12:03:40;11.40;99.90
22450;DHT22;11392;57.390;-2.468;2023-05-07T12:06:10;11.40;99.90
22450;DHT22;11392;57.390;-2.468;2023-05-07T12:08:39;11.40;99.90
22450;DHT22;11392;57.390;-2.468;2023-05-07T12:11:08;11.40;99.90
22450;DHT22;11392;57.390;-2.468;2023-05-07T12:13:36;11.30;99.90
22450;DHT22;11392;57.390;-2.468;2023-05-07T12:16:04;11.30;99.90
22450;DHT22;11392;57.390;-2.468;2023-05-07T12:18:33;11.40;99.90
22450;DHT22;11392;57.390;-2.468;2023-05-07T12:21:01;11.40;99.90
22450;DHT22;11392;57.390;-2.468;2023-05-07T12:23:29;11.30;99.90
22450;DHT22;11392;57.390;-2.468;2023-05-07T12:25:56;11.40;99.90
22450;DHT22;11392;57.390;-2.468;2023-05-07T12:28:23;11.30;99.90
22450;DHT22;11392;57.390;-2.468;2023-05-07T12:30:51;11.30;99.90
22450;DHT22;11392;57.390;-2.468;2023-05-07T12:33:24;11.30;99.90
22450;DHT22;11392;57.390;-2.468;2023-05-07T12:35:54;11.30;99.90
22450;DHT22;11392;57.390;-2.468;2023-05-07T12:38:21;11.20;99.90
22450;DHT22;11392;57.390;-2.468;2023-05-07T12:40:50;11.30;99.90
22450;DHT22;11392;57.390;-2.468;2023-05-07T12:43:19;11.30;99.90
22450;DHT22;11392;57.390;-2.468;2023-05-07T12:45:48;11.30;99.90
22450;DHT22;11392;57.390;-2.468;2023-05-07T12:48:16;11.20;99.90
22450;DHT22;11392;57.390;-2.468;2023-05-07T12:50:43;11.20;99.90
22450;DHT22;11392;57.390;-2.468;2023-05-07T12:53:11;11.10;99.90
22450;DHT22;11392;57.390;-2.468;2023-05-07T12:55:46;11.10;99.90
22450;DHT22;11392;57.390;-2.468;2023-05-07T12:58:35;11.30;99.90
22450;DHT22;11392;57.390;-2.468;2023-05-07T13:01:07;11.30;99.90
22450;DHT22;11392;57.390;-2.468;2023-05-07T13:03:36;11.20;99.90
22450;DHT22;11392;57.390;-2.468;2023-05-07T13:06:06;11.20;99.90
22450;DHT22;11392;57.390;-2.468;2023-05-07T13:08:38;11.30;99.90
22450;DHT22;11392;57.390;-2.468;2023-05-07T13:11:08;11.30;99.90
22450;DHT22;11392;57.390;-2.468;2023-05-07T13:13:37;11.30;99.90
22450;DHT22;11392;57.390;-2.468;2023-05-07T13:16:06;11.40;99.90
22450;DHT22;11392;57.390;-2.468;2023-05-07T13:18:34;11.40;99.90
22450;DHT22;11392;57.390;-2.468;2023-05-07T13:21:01;11.40;99.90
22450;DHT22;11392;57.390;-2.468;2023-05-07T13:23:29;11.40;99.90
22450;DHT22;11392;57.390;-2.468;2023-05-07T13:25:56;11.50;99.90
22450;DHT22;11392;57.390;-2.468;2023-05-07T13:28:26;11.50;99.90
22450;DHT22;11392;57.390;-2.468;2023-05-07T13:30:53;11.50;99.90
22450;DHT22;11392;57.390;-2.468;2023-05-07T13:33:21;11.60;99.90
22450;DHT22;11392;57.390;-2.468;2023-05-07T13:35:48;11.60;99.90
22450;DHT22;11392;57.390;-2.468;2023-05-07T13:38:15;11.60;99.90
22450;DHT22;11392;57.390;-2.468;2023-05-07T13:40:42;11.50;99.90
22450;DHT22;11392;57.390;-2.468;2023-05-07T13:43:09;11.60;99.90
22450;DHT22;11392;57.390;-2.468;2023-05-07T13:45:37;11.70;99.90
22450;DHT22;11392;57.390;-2.468;2023-05-07T13:48:04;11.70;99.90
22450;DHT22;11392;57.390;-2.468;2023-05-07T13:50:31;11.70;99.90
22450;DHT22;11392;57.390;-2.468;2023-05-07T13:52:58;11.70;99.90
22450;DHT22;11392;57.390;-2.468;2023-05-07T13:55:27;11.50;99.90
22450;DHT22;11392;57.390;-2.468;2023-05-07T13:58:01;11.50;99.90
22450;DHT22;11392;57.390;-2.468;2023-05-07T14:00:32;11.40;99.90
22450;DHT22;11392;57.390;-2.468;2023-05-07T14:02:59;11.40;99.90
22450;DHT22;11392;57.390;-2.468;2023-05-07T14:05:27;11.30;99.90
22450;DHT22;11392;57.390;-2.468;2023-05-07T14:07:56;11.40;99.90
22450;DHT22;11392;57.390;-2.468;2023-05-07T14:10:24;11.40;99.90
22450;DHT22;11392;57.390;-2.468;2023-05-07T14:12:51;11.30;99.90
22450;DHT22;11392;57.390;-2.468;2023-05-07T14:15:19;11.40;99.90
22450;DHT22;11392;57.390;-2.468;2023-05-07T14:17:46;11.40;99.90
22450;DHT22;11392;57.390;-2.468;2023-05-07T14:20:14;11.40;99.90
22450;DHT22;11392;57.390;-2.468;2023-05-07T14:22:41;11.50;99.90
22450;DHT22;11392;57.390;-2.468;2023-05-07T14:25:08;11.50;99.90
22450;DHT22;11392;57.390;-2.468;2023-05-07T14:27:36;11.60;99.90
22450;DHT22;11392;57.390;-2.468;2023-05-07T14:30:04;11.60;99.90
22450;DHT22;11392;57.390;-2.468;2023-05-07T14:32:32;11.50;99.90
22450;DHT22;11392;57.390;-2.468;2023-05-07T14:34:59;11.50;99.90
22450;DHT22;11392;57.390;-2.468;2023-05-07T14:37:26;11.60;99.90
22450;DHT22;11392;57.390;-2.468;2023-05-07T14:39:54;11.70;99.90
22450;DHT22;11392;57.390;-2.468;2023-05-07T14:42:21;11.70;99.90
22450;DHT22;11392;57.390;-2.468;2023-05-07T14:44:48;11.80;99.90
22450;DHT22;11392;57.390;-2.468;2023-05-07T14:47:15;11.70;99.90
22450;DHT22;11392;57.390;-2.468;2023-05-07T14:49:45;11.70;99.90
22450;DHT22;11392;57.390;-2.468;2023-05-07T14:52:12;11.70;99.90
22450;DHT22;11392;57.390;-2.468;2023-05-07T14:54:39;11.70;99.90
22450;DHT22;11392;57.390;-2.468;2023-05-07T14:57:08;11.70;99.90
22450;DHT22;11392;57.390;-2.468;2023-05-07T14:59:35;11.70;99.90
22450;DHT22;11392;57.390;-2.468;2023-05-07T15:02:02;11.70;99.90
22450;DHT22;11392;57.390;-2.468;2023-05-07T15:04:32;11.80;99.90
22450;DHT22;11392;57.390;-2.468;2023-05-07T15:07:00;11.80;99.90
22450;DHT22;11392;57.390;-2.468;2023-05-07T15:09:27;11.80;99.90
22450;DHT22;11392;57.390;-2.468;2023-05-07T15:11:54;11.80;99.90
22450;DHT22;11392;57.390;-2.468;2023-05-07T15:14:22;11.90;99.90
22450;DHT22;11392;57.390;-2.468;2023-05-07T15:16:49;12.00;99.90
22450;DHT22;11392;57.390;-2.468;2023-05-07T15:19:16;12.30;99.90
22450;DHT22;11392;57.390;-2.468;2023-05-07T15:21:44;12.30;99.90
22450;DHT22;11392;57.390;-2.468;2023-05-07T15:24:11;12.20;99.90
22450;DHT22;11392;57.390;-2.468;2023-05-07T15:26:38;12.10;99.90
22450;DHT22;11392;57.390;-2.468;2023-05-07T15:29:05;11.90;99.90
22450;DHT22;11392;57.390;-2.468;2023-05-07T15:31:37;11.80;99.90
22450;DHT22;11392;57.390;-2.468;2023-05-07T15:34:05;11.90;99.90
22450;DHT22;11392;57.390;-2.468;2023-05-07T15:36:33;11.80;99.90
22450;DHT22;11392;57.390;-2.468;2023-05-07T15:39:00;11.70;99.90
22450;DHT22;11392;57.390;-2.468;2023-05-07T15:41:29;11.70;99.90
22450;DHT22;11392;57.390;-2.468;2023-05-07T15:43:56;11.60;99.90
22450;DHT22;11392;57.390;-2.468;2023-05-07T15:46:24;11.60;99.90
22450;DHT22;11392;57.390;-2.468;2023-05-07T15:48:52;11.50;99.90
22450;DHT22;11392;57.390;-2.468;2023-05-07T15:51:20;11.40;99.90
22450;DHT22;11392;57.390;-2.468;2023-05-07T15:53:49;11.30;99.90
22450;DHT22;11392;57.390;-2.468;2023-05-07T15:56:17;11.20;99.90
22450;DHT22;11392;57.390;-2.468;2023-05-07T15:58:44;11.20;99.90
22450;DHT22;11392;57.390;-2.468;2023-05-07T16:01:12;11.10;99.90